sensor_id;sensor_type;location;lat;lon;timestamp;P1;durP1;ratioP1;P2;durP2;ratioP2
3341;SDS011;1684;50.748;6.154;2023-03-14T00:02:02;7.00;;;2.30;;
3341;SDS011;1684;50.748;6.154;2023-03-14T00:04:30;7.30;;;1.87;;
3341;SDS011;1684;50.748;6.154;2023-03-14T00:06:58;8.50;;;2.47;;
3341;SDS011;1684;50.748;6.154;2023-03-14T00:09:26;15.30;;;2.70;;
3341;SDS011;1684;50.748;6.154;2023-03-14T00:11:56;11.00;;;2.50;;
3341;SDS011;1684;50.748;6.154;2023-03-14T00:14:27;9.60;;;3.13;;
3341;SDS011;1684;50.748;6.154;2023-03-14T00:16:55;9.93;;;1.77;;
3341;SDS011;1684;50.748;6.154;2023-03-14T00:19:23;12.93;;;3.00;;
3341;SDS011;1684;50.748;6.154;2023-03-14T00:21:52;14.03;;;2.97;;
3341;SDS011;1684;50.748;6.154;2023-03-14T00:24:20;8.27;;;2.00;;
3341;SDS011;1684;50.748;6.154;2023-03-14T00:26:49;7.20;;;2.43;;
3341;SDS011;1684;50.748;6.154;2023-03-14T00:29:17;9.00;;;2.43;;
3341;SDS011;1684;50.748;6.154;2023-03-14T00:31:47;5.20;;;1.83;;
3341;SDS011;1684;50.748;6.154;2023-03-14T00:34:15;5.73;;;2.03;;
3341;SDS011;1684;50.748;6.154;2023-03-14T00:36:44;6.20;;;1.63;;
3341;SDS011;1684;50.748;6.154;2023-03-14T00:39:12;6.80;;;1.80;;
3341;SDS011;1684;50.748;6.154;2023-03-14T00:41:40;5.60;;;1.20;;
3341;SDS011;1684;50.748;6.154;2023-03-14T00:44:09;3.30;;;1.20;;
3341;SDS011;1684;50.748;6.154;2023-03-14T00:46:37;4.50;;;1.17;;
3341;SDS011;1684;50.748;6.154;2023-03-14T00:49:07;4.40;;;1.97;;
3341;SDS011;1684;50.748;6.154;2023-03-14T00:51:35;11.60;;;2.27;;
3341;SDS011;1684;50.748;6.154;2023-03-14T00:54:04;6.03;;;1.70;;
3341;SDS011;1684;50.748;6.154;2023-03-14T00:56:32;3.73;;;1.70;;
3341;SDS011;1684;50.748;6.154;2023-03-14T00:59:00;3.53;;;1.70;;
3341;SDS011;1684;50.748;6.154;2023-03-14T01:01:28;4.13;;;1.37;;
3341;SDS011;1684;50.748;6.154;2023-03-14T01:03:56;4.30;;;1.07;;
3341;SDS011;1684;50.748;6.154;2023-03-14T01:06:27;5.63;;;1.40;;
3341;SDS011;1684;50.748;6.154;2023-03-14T01:08:56;7.03;;;1.57;;
3341;SDS011;1684;50.748;6.154;2023-03-14T01:11:25;11.40;;;1.73;;
3341;SDS011;1684;50.748;6.154;2023-03-14T01:13:54;3.40;;;1.23;;
3341;SDS011;1684;50.748;6.154;2023-03-14T01:16:23;8.83;;;1.20;;
3341;SDS011;1684;50.748;6.154;2023-03-14T01:18:52;4.40;;;1.43;;
3341;SDS011;1684;50.748;6.154;2023-03-14T01:21:21;5.00;;;1.03;;
3341;SDS011;1684;50.748;6.154;2023-03-14T01:23:52;9.60;;;2.27;;
3341;SDS011;1684;50.748;6.154;2023-03-14T01:26:22;3.30;;;1.13;;
3341;SDS011;1684;50.748;6.154;2023-03-14T01:28:51;6.67;;;1.40;;
3341;SDS011;1684;50.748;6.154;2023-03-14T01:31:20;5.90;;;1.20;;
3341;SDS011;1684;50.748;6.154;2023-03-14T01:33:48;3.60;;;1.50;;
3341;SDS011;1684;50.748;6.154;2023-03-14T01:36:16;6.60;;;1.30;;
3341;SDS011;1684;50.748;6.154;2023-03-14T01:38:45;5.27;;;1.20;;
3341;SDS011;1684;50.748;6.154;2023-03-14T01:41:15;6.23;;;1.60;;
3341;SDS011;1684;50.748;6.154;2023-03-14T01:43:44;4.13;;;1.30;;
3341;SDS011;1684;50.748;6.154;2023-03-14T01:46:17;6.60;;;1.90;;
3341;SDS011;1684;50.748;6.154;2023-03-14T01:48:48;4.43;;;1.53;;
3341;SDS011;1684;50.748;6.154;2023-03-14T01:51:18;8.43;;;1.40;;
3341;SDS011;1684;50.748;6.154;2023-03-14T01:53:47;5.70;;;1.63;;
3341;SDS011;1684;50.748;6.154;2023-03-14T01:56:18;8.23;;;1.40;;
3341;SDS011;1684;50.748;6.154;2023-03-14T01:58:47;4.63;;;1.90;;
3341;SDS011;1684;50.748;6.154;2023-03-14T02:01:18;8.70;;;1.57;;
3341;SDS011;1684;50.748;6.154;2023-03-14T02:03:48;17.03;;;2.17;;
3341;SDS011;1684;50.748;6.154;2023-03-14T02:06:21;13.60;;;3.33;;
3341;SDS011;1684;50.748;6.154;2023-03-14T02:08:51;8.90;;;2.67;;
3341;SDS011;1684;50.748;6.154;2023-03-14T02:11:21;7.33;;;2.80;;
3341;SDS011;1684;50.748;6.154;2023-03-14T02:13:49;9.10;;;2.60;;
3341;SDS011;1684;50.748;6.154;2023-03-14T02:16:18;6.47;;;2.30;;
3341;SDS011;1684;50.748;6.154;2023-03-14T02:18:46;6.77;;;2.20;;
3341;SDS011;1684;50.748;6.154;2023-03-14T02:21:16;7.30;;;2.50;;
3341;SDS011;1684;50.748;6.154;2023-03-14T02:23:48;7.10;;;2.20;;
3341;SDS011;1684;50.748;6.154;2023-03-14T02:26:21;9.00;;;2.43;;
3341;SDS011;1684;50.748;6.154;2023-03-14T02:28:52;13.03;;;2.63;;
3341;SDS011;1684;50.748;6.154;2023-03-14T02:31:21;9.03;;;2.50;;
3341;SDS011;1684;50.748;6.154;2023-03-14T02:33:50;5.10;;;2.03;;
3341;SDS011;1684;50.748;6.154;2023-03-14T02:36:18;8.97;;;2.97;;
3341;SDS011;1684;50.748;6.154;2023-03-14T02:38:50;9.23;;;3.10;;
3341;SDS011;1684;50.748;6.154;2023-03-14T02:41:21;7.93;;;2.13;;
3341;SDS011;1684;50.748;6.154;2023-03-14T02:43:49;8.50;;;2.17;;
3341;SDS011;1684;50.748;6.154;2023-03-14T02:46:20;7.33;;;2.33;;
3341;SDS011;1684;50.748;6.154;2023-03-14T02:48:49;6.03;;;2.20;;
3341;SDS011;1684;50.748;6.154;2023-03-14T02:51:19;8.07;;;2.30;;
3341;SDS011;1684;50.748;6.154;2023-03-14T02:53:48;9.70;;;2.57;;
3341;SDS011;1684;50.748;6.154;2023-03-14T02:56:16;9.73;;;2.47;;
3341;SDS011;1684;50.748;6.154;2023-03-14T02:58:44;11.27;;;2.40;;
3341;SDS011;1684;50.748;6.154;2023-03-14T03:01:13;7.27;;;2.07;;
3341;SDS011;1684;50.748;6.154;2023-03-14T03:03:42;7.70;;;2.20;;
3341;SDS011;1684;50.748;6.154;2023-03-14T03:06:11;5.00;;;1.50;;
3341;SDS011;1684;50.748;6.154;2023-03-14T03:08:39;9.70;;;2.00;;
3341;SDS011;1684;50.748;6.154;2023-03-14T03:11:07;7.90;;;1.60;;
3341;SDS011;1684;50.748;6.154;2023-03-14T03:13:36;3.90;;;1.43;;
3341;SDS011;1684;50.748;6.154;2023-03-14T03:16:04;10.33;;;2.43;;
3341;SDS011;1684;50.748;6.154;2023-03-14T03:18:32;7.93;;;1.87;;
3341;SDS011;1684;50.748;6.154;2023-03-14T03:21:02;6.23;;;1.43;;
3341;SDS011;1684;50.748;6.154;2023-03-14T03:23:31;5.40;;;1.30;;
3341;SDS011;1684;50.748;6.154;2023-03-14T03:26:00;3.80;;;1.60;;
3341;SDS011;1684;50.748;6.154;2023-03-14T03:28:29;4.40;;;1.30;;
3341;SDS011;1684;50.748;6.154;2023-03-14T03:30:57;2.50;;;1.03;;
3341;SDS011;1684;50.748;6.154;2023-03-14T03:33:25;3.17;;;1.20;;
3341;SDS011;1684;50.748;6.154;2023-03-14T03:35:54;4.00;;;1.33;;
3341;SDS011;1684;50.748;6.154;2023-03-14T03:38:23;3.70;;;0.87;;
3341;SDS011;1684;50.748;6.154;2023-03-14T03:40:52;7.10;;;1.20;;
3341;SDS011;1684;50.748;6.154;2023-03-14T03:43:20;6.83;;;1.33;;
3341;SDS011;1684;50.748;6.154;2023-03-14T03:45:49;3.57;;;0.93;;
3341;SDS011;1684;50.748;6.154;2023-03-14T03:48:17;3.00;;;1.50;;
3341;SDS011;1684;50.748;6.154;2023-03-14T03:50:45;3.70;;;1.00;;
3341;SDS011;1684;50.748;6.154;2023-03-14T03:53:13;5.10;;;0.87;;
3341;SDS011;1684;50.748;6.154;2023-03-14T03:55:57;3.30;;;0.90;;
3341;SDS011;1684;50.748;6.154;2023-03-14T03:58:25;3.47;;;0.73;;
3341;SDS011;1684;50.748;6.154;2023-03-14T04:00:53;4.50;;;1.30;;
3341;SDS011;1684;50.748;6.154;2023-03-14T04:03:22;6.03;;;1.00;;
3341;SDS011;1684;50.748;6.154;2023-03-14T04:05:57;4.63;;;0.90;;
3341;SDS011;1684;50.748;6.154;2023-03-14T04:08:25;4.10;;;1.00;;
3341;SDS011;1684;50.748;6.154;2023-03-14T04:10:56;2.30;;;0.63;;
3341;SDS011;1684;50.748;6.154;2023-03-14T04:13:24;2.30;;;0.60;;
3341;SDS011;1684;50.748;6.154;2023-03-14T04:15:55;2.27;;;0.57;;
3341;SDS011;1684;50.748;6.154;2023-03-14T04:18:24;2.10;;;0.50;;
3341;SDS011;1684;50.748;6.154;2023-03-14T04:20:52;2.37;;;0.53;;
3341;SDS011;1684;50.748;6.154;2023-03-14T04:23:21;3.10;;;0.90;;
3341;SDS011;1684;50.748;6.154;2023-03-14T04:25:50;2.20;;;0.57;;
3341;SDS011;1684;50.748;6.154;2023-03-14T04:28:19;2.50;;;0.60;;
3341;SDS011;1684;50.748;6.154;2023-03-14T04:30:48;2.23;;;0.80;;
3341;SDS011;1684;50.748;6.154;2023-03-14T04:33:16;2.10;;;0.63;;
3341;SDS011;1684;50.748;6.154;2023-03-14T04:35:44;1.90;;;0.47;;
3341;SDS011;1684;50.748;6.154;2023-03-14T04:38:13;3.60;;;0.73;;
3341;SDS011;1684;50.748;6.154;2023-03-14T04:40:41;2.90;;;0.50;;
3341;SDS011;1684;50.748;6.154;2023-03-14T04:43:10;2.00;;;0.50;;
3341;SDS011;1684;50.748;6.154;2023-03-14T04:45:42;2.00;;;0.40;;
3341;SDS011;1684;50.748;6.154;2023-03-14T04:48:10;2.10;;;0.50;;
3341;SDS011;1684;50.748;6.154;2023-03-14T04:50:38;1.90;;;0.50;;
3341;SDS011;1684;50.748;6.154;2023-03-14T04:53:07;1.90;;;0.40;;
3341;SDS011;1684;50.748;6.154;2023-03-14T04:55:35;2.10;;;0.50;;
3341;SDS011;1684;50.748;6.154;2023-03-14T04:58:03;1.90;;;0.50;;
3341;SDS011;1684;50.748;6.154;2023-03-14T05:00:31;2.33;;;1.00;;
3341;SDS011;1684;50.748;6.154;2023-03-14T05:03:01;2.00;;;0.50;;
3341;SDS011;1684;50.748;6.154;2023-03-14T05:05:29;4.27;;;0.60;;
3341;SDS011;1684;50.748;6.154;2023-03-14T05:07:58;1.90;;;0.40;;
3341;SDS011;1684;50.748;6.154;2023-03-14T05:10:26;2.37;;;0.63;;
3341;SDS011;1684;50.748;6.154;2023-03-14T05:12:54;2.10;;;0.40;;
3341;SDS011;1684;50.748;6.154;2023-03-14T05:15:40;2.53;;;0.50;;
3341;SDS011;1684;50.748;6.154;2023-03-14T05:18:09;2.00;;;0.50;;
3341;SDS011;1684;50.748;6.154;2023-03-14T05:20:38;2.00;;;0.50;;
3341;SDS011;1684;50.748;6.154;2023-03-14T05:23:06;2.37;;;0.40;;
3341;SDS011;1684;50.748;6.154;2023-03-14T05:25:34;2.40;;;0.50;;
3341;SDS011;1684;50.748;6.154;2023-03-14T05:28:03;1.93;;;0.43;;
3341;SDS011;1684;50.748;6.154;2023-03-14T05:30:31;2.20;;;0.50;;
3341;SDS011;1684;50.748;6.154;2023-03-14T05:33:00;3.57;;;0.60;;
3341;SDS011;1684;50.748;6.154;2023-03-14T05:35:31;1.90;;;0.40;;
3341;SDS011;1684;50.748;6.154;2023-03-14T05:38:00;2.10;;;0.70;;
3341;SDS011;1684;50.748;6.154;2023-03-14T05:40:28;1.90;;;0.40;;
3341;SDS011;1684;50.748;6.154;2023-03-14T05:42:56;2.20;;;0.60;;
3341;SDS011;1684;50.748;6.154;2023-03-14T05:45:25;2.07;;;0.50;;
3341;SDS011;1684;50.748;6.154;2023-03-14T05:47:53;2.10;;;0.50;;
3341;SDS011;1684;50.748;6.154;2023-03-14T05:50:21;2.00;;;0.50;;
3341;SDS011;1684;50.748;6.154;2023-03-14T05:52:52;3.50;;;0.70;;
3341;SDS011;1684;50.748;6.154;2023-03-14T05:55:20;3.40;;;0.67;;
3341;SDS011;1684;50.748;6.154;2023-03-14T05:57:48;2.77;;;0.50;;
3341;SDS011;1684;50.748;6.154;2023-03-14T06:00:17;3.03;;;0.50;;
3341;SDS011;1684;50.748;6.154;2023-03-14T06:02:45;2.20;;;0.50;;
3341;SDS011;1684;50.748;6.154;2023-03-14T06:05:13;2.20;;;0.50;;
3341;SDS011;1684;50.748;6.154;2023-03-14T06:07:42;2.13;;;0.67;;
3341;SDS011;1684;50.748;6.154;2023-03-14T06:10:11;2.37;;;0.53;;
3341;SDS011;1684;50.748;6.154;2023-03-14T06:12:40;2.00;;;0.40;;
3341;SDS011;1684;50.748;6.154;2023-03-14T06:15:08;1.90;;;0.43;;
3341;SDS011;1684;50.748;6.154;2023-03-14T06:17:36;2.53;;;0.50;;
3341;SDS011;1684;50.748;6.154;2023-03-14T06:20:05;2.10;;;0.50;;
3341;SDS011;1684;50.748;6.154;2023-03-14T06:22:33;3.33;;;1.13;;
3341;SDS011;1684;50.748;6.154;2023-03-14T06:25:02;3.27;;;0.50;;
3341;SDS011;1684;50.748;6.154;2023-03-14T06:27:32;3.70;;;0.70;;
3341;SDS011;1684;50.748;6.154;2023-03-14T06:30:00;5.83;;;0.70;;
3341;SDS011;1684;50.748;6.154;2023-03-14T06:32:29;2.00;;;0.50;;
3341;SDS011;1684;50.748;6.154;2023-03-14T06:34:57;2.30;;;0.50;;
3341;SDS011;1684;50.748;6.154;2023-03-14T06:37:27;2.50;;;0.67;;
3341;SDS011;1684;50.748;6.154;2023-03-14T06:39:55;2.53;;;0.57;;
3341;SDS011;1684;50.748;6.154;2023-03-14T06:42:24;2.20;;;0.70;;
3341;SDS011;1684;50.748;6.154;2023-03-14T06:44:53;2.43;;;0.60;;
3341;SDS011;1684;50.748;6.154;2023-03-14T06:47:22;2.10;;;0.60;;
3341;SDS011;1684;50.748;6.154;2023-03-14T06:49:50;2.30;;;0.70;;
3341;SDS011;1684;50.748;6.154;2023-03-14T06:52:18;2.53;;;0.60;;
3341;SDS011;1684;50.748;6.154;2023-03-14T06:54:47;2.17;;;0.50;;
3341;SDS011;1684;50.748;6.154;2023-03-14T06:57:15;2.27;;;0.70;;
3341;SDS011;1684;50.748;6.154;2023-03-14T06:59:43;5.27;;;0.77;;
3341;SDS011;1684;50.748;6.154;2023-03-14T07:02:12;2.50;;;0.63;;
3341;SDS011;1684;50.748;6.154;2023-03-14T07:04:41;2.37;;;0.60;;
3341;SDS011;1684;50.748;6.154;2023-03-14T07:07:09;8.70;;;0.87;;
3341;SDS011;1684;50.748;6.154;2023-03-14T07:09:37;2.30;;;0.60;;
3341;SDS011;1684;50.748;6.154;2023-03-14T07:12:06;2.17;;;0.60;;
3341;SDS011;1684;50.748;6.154;2023-03-14T07:14:34;2.20;;;0.60;;
3341;SDS011;1684;50.748;6.154;2023-03-14T07:17:02;2.20;;;0.60;;
3341;SDS011;1684;50.748;6.154;2023-03-14T07:19:32;2.00;;;0.70;;
3341;SDS011;1684;50.748;6.154;2023-03-14T07:22:00;2.30;;;0.77;;
3341;SDS011;1684;50.748;6.154;2023-03-14T07:24:28;2.40;;;0.70;;
3341;SDS011;1684;50.748;6.154;2023-03-14T07:26:56;2.40;;;0.73;;
3341;SDS011;1684;50.748;6.154;2023-03-14T07:29:24;2.00;;;0.70;;
3341;SDS011;1684;50.748;6.154;2023-03-14T07:31:53;3.17;;;1.37;;
3341;SDS011;1684;50.748;6.154;2023-03-14T07:34:21;2.47;;;0.80;;
3341;SDS011;1684;50.748;6.154;2023-03-14T07:36:50;4.13;;;1.00;;
3341;SDS011;1684;50.748;6.154;2023-03-14T07:39:19;2.50;;;0.80;;
3341;SDS011;1684;50.748;6.154;2023-03-14T07:41:47;2.90;;;1.03;;
3341;SDS011;1684;50.748;6.154;2023-03-14T07:44:15;3.90;;;1.60;;
3341;SDS011;1684;50.748;6.154;2023-03-14T07:46:43;2.73;;;1.10;;
3341;SDS011;1684;50.748;6.154;2023-03-14T07:49:12;2.17;;;0.87;;
3341;SDS011;1684;50.748;6.154;2023-03-14T07:51:40;4.57;;;1.60;;
3341;SDS011;1684;50.748;6.154;2023-03-14T07:54:11;2.60;;;1.07;;
3341;SDS011;1684;50.748;6.154;2023-03-14T07:56:39;3.27;;;1.10;;
3341;SDS011;1684;50.748;6.154;2023-03-14T07:59:07;3.30;;;1.33;;
3341;SDS011;1684;50.748;6.154;2023-03-14T08:01:37;3.20;;;1.90;;
3341;SDS011;1684;50.748;6.154;2023-03-14T08:04:05;2.57;;;1.03;;
3341;SDS011;1684;50.748;6.154;2023-03-14T08:06:34;2.50;;;0.87;;
3341;SDS011;1684;50.748;6.154;2023-03-14T08:09:03;4.00;;;1.50;;
3341;SDS011;1684;50.748;6.154;2023-03-14T08:11:33;4.07;;;1.60;;
3341;SDS011;1684;50.748;6.154;2023-03-14T08:14:01;5.60;;;1.40;;
3341;SDS011;1684;50.748;6.154;2023-03-14T08:16:29;4.90;;;1.30;;
3341;SDS011;1684;50.748;6.154;2023-03-14T08:18:58;3.00;;;1.20;;
3341;SDS011;1684;50.748;6.154;2023-03-14T08:21:26;2.47;;;0.87;;
3341;SDS011;1684;50.748;6.154;2023-03-14T08:23:54;4.20;;;1.23;;
3341;SDS011;1684;50.748;6.154;2023-03-14T08:26:22;2.97;;;1.20;;
3341;SDS011;1684;50.748;6.154;2023-03-14T08:28:52;3.50;;;1.20;;
3341;SDS011;1684;50.748;6.154;2023-03-14T08:31:21;2.63;;;1.10;;
3341;SDS011;1684;50.748;6.154;2023-03-14T08:33:49;3.33;;;1.10;;
3341;SDS011;1684;50.748;6.154;2023-03-14T08:36:20;4.30;;;1.30;;
3341;SDS011;1684;50.748;6.154;2023-03-14T08:38:49;3.27;;;1.23;;
3341;SDS011;1684;50.748;6.154;2023-03-14T08:41:17;2.60;;;1.10;;
3341;SDS011;1684;50.748;6.154;2023-03-14T08:43:46;7.00;;;0.87;;
3341;SDS011;1684;50.748;6.154;2023-03-14T08:46:15;5.00;;;1.00;;
3341;SDS011;1684;50.748;6.154;2023-03-14T08:48:43;1.80;;;0.30;;
3341;SDS011;1684;50.748;6.154;2023-03-14T08:51:12;1.80;;;0.40;;
3341;SDS011;1684;50.748;6.154;2023-03-14T08:53:41;1.80;;;0.40;;
3341;SDS011;1684;50.748;6.154;2023-03-14T08:56:09;1.80;;;0.30;;
3341;SDS011;1684;50.748;6.154;2023-03-14T08:58:38;1.80;;;0.40;;
3341;SDS011;1684;50.748;6.154;2023-03-14T09:01:07;1.80;;;0.40;;
3341;SDS011;1684;50.748;6.154;2023-03-14T09:03:38;1.80;;;0.40;;
3341;SDS011;1684;50.748;6.154;2023-03-14T09:06:07;1.80;;;0.40;;
3341;SDS011;1684;50.748;6.154;2023-03-14T09:08:36;1.80;;;0.40;;
3341;SDS011;1684;50.748;6.154;2023-03-14T09:11:06;1.80;;;0.40;;
3341;SDS011;1684;50.748;6.154;2023-03-14T09:13:34;1.80;;;0.40;;
3341;SDS011;1684;50.748;6.154;2023-03-14T09:16:03;1.80;;;0.33;;
3341;SDS011;1684;50.748;6.154;2023-03-14T09:18:31;1.80;;;0.40;;
3341;SDS011;1684;50.748;6.154;2023-03-14T09:21:01;1.80;;;0.40;;
3341;SDS011;1684;50.748;6.154;2023-03-14T09:23:30;1.80;;;0.40;;
3341;SDS011;1684;50.748;6.154;2023-03-14T09:25:58;1.80;;;0.40;;
3341;SDS011;1684;50.748;6.154;2023-03-14T09:28:27;1.80;;;0.40;;
3341;SDS011;1684;50.748;6.154;2023-03-14T09:30:55;1.80;;;0.40;;
3341;SDS011;1684;50.748;6.154;2023-03-14T09:33:24;1.80;;;0.30;;
3341;SDS011;1684;50.748;6.154;2023-03-14T09:35:52;1.80;;;0.30;;
3341;SDS011;1684;50.748;6.154;2023-03-14T09:38:21;1.80;;;0.30;;
3341;SDS011;1684;50.748;6.154;2023-03-14T09:40:51;1.80;;;0.40;;
3341;SDS011;1684;50.748;6.154;2023-03-14T09:43:19;1.80;;;0.30;;
3341;SDS011;1684;50.748;6.154;2023-03-14T09:45:49;1.80;;;0.30;;
3341;SDS011;1684;50.748;6.154;2023-03-14T09:48:19;1.80;;;0.30;;
3341;SDS011;1684;50.748;6.154;2023-03-14T09:50:48;1.80;;;0.40;;
3341;SDS011;1684;50.748;6.154;2023-03-14T09:53:19;1.80;;;0.40;;
3341;SDS011;1684;50.748;6.154;2023-03-14T09:55:50;1.80;;;0.30;;
3341;SDS011;1684;50.748;6.154;2023-03-14T09:58:19;1.80;;;0.40;;
3341;SDS011;1684;50.748;6.154;2023-03-14T10:00:48;1.80;;;0.40;;
3341;SDS011;1684;50.748;6.154;2023-03-14T10:03:20;1.80;;;0.30;;
3341;SDS011;1684;50.748;6.154;2023-03-14T10:05:49;1.80;;;0.40;;
3341;SDS011;1684;50.748;6.154;2023-03-14T10:08:18;1.80;;;0.40;;
3341;SDS011;1684;50.748;6.154;2023-03-14T10:10:47;1.80;;;0.40;;
3341;SDS011;1684;50.748;6.154;2023-03-14T10:13:17;1.80;;;0.40;;
3341;SDS011;1684;50.748;6.154;2023-03-14T10:15:48;1.80;;;0.30;;
3341;SDS011;1684;50.748;6.154;2023-03-14T10:18:19;1.80;;;0.30;;
3341;SDS011;1684;50.748;6.154;2023-03-14T10:20:48;1.80;;;0.40;;
3341;SDS011;1684;50.748;6.154;2023-03-14T10:23:24;5.43;;;3.80;;
3341;SDS011;1684;50.748;6.154;2023-03-14T10:25:58;9.37;;;4.33;;
3341;SDS011;1684;50.748;6.154;2023-03-14T10:28:29;5.90;;;3.93;;
3341;SDS011;1684;50.748;6.154;2023-03-14T10:30:59;4.33;;;2.00;;
3341;SDS011;1684;50.748;6.154;2023-03-14T10:33:28;4.63;;;3.77;;
3341;SDS011;1684;50.748;6.154;2023-03-14T10:35:58;5.47;;;2.60;;
3341;SDS011;1684;50.748;6.154;2023-03-14T10:38:27;4.63;;;3.50;;
3341;SDS011;1684;50.748;6.154;2023-03-14T10:40:56;4.37;;;2.83;;
3341;SDS011;1684;50.748;6.154;2023-03-14T10:43:25;7.10;;;4.00;;
3341;SDS011;1684;50.748;6.154;2023-03-14T10:45:56;5.20;;;2.90;;
3341;SDS011;1684;50.748;6.154;2023-03-14T10:48:30;5.87;;;3.20;;
3341;SDS011;1684;50.748;6.154;2023-03-14T10:51:03;3.40;;;2.20;;
3341;SDS011;1684;50.748;6.154;2023-03-14T10:53:33;4.87;;;2.43;;
3341;SDS011;1684;50.748;6.154;2023-03-14T10:56:02;4.73;;;2.37;;
3341;SDS011;1684;50.748;6.154;2023-03-14T10:58:33;4.87;;;2.50;;
3341;SDS011;1684;50.748;6.154;2023-03-14T11:01:05;3.83;;;1.80;;
3341;SDS011;1684;50.748;6.154;2023-03-14T11:03:37;2.67;;;1.40;;
3341;SDS011;1684;50.748;6.154;2023-03-14T11:06:09;4.13;;;2.40;;
3341;SDS011;1684;50.748;6.154;2023-03-14T11:08:41;5.23;;;1.93;;
3341;SDS011;1684;50.748;6.154;2023-03-14T11:11:13;3.00;;;1.30;;
3341;SDS011;1684;50.748;6.154;2023-03-14T11:13:47;3.23;;;1.53;;
3341;SDS011;1684;50.748;6.154;2023-03-14T11:16:22;3.00;;;1.50;;
3341;SDS011;1684;50.748;6.154;2023-03-14T11:19:03;3.30;;;1.00;;
3341;SDS011;1684;50.748;6.154;2023-03-14T11:21:37;4.77;;;1.47;;
3341;SDS011;1684;50.748;6.154;2023-03-14T11:24:13;2.87;;;1.60;;
3341;SDS011;1684;50.748;6.154;2023-03-14T11:26:44;3.80;;;1.30;;
3341;SDS011;1684;50.748;6.154;2023-03-14T11:29:19;3.67;;;1.30;;
3341;SDS011;1684;50.748;6.154;2023-03-14T11:31:49;3.17;;;1.53;;
3341;SDS011;1684;50.748;6.154;2023-03-14T11:34:22;2.40;;;1.10;;
3341;SDS011;1684;50.748;6.154;2023-03-14T11:36:55;3.13;;;1.40;;
3341;SDS011;1684;50.748;6.154;2023-03-14T11:39:26;3.13;;;1.40;;
3341;SDS011;1684;50.748;6.154;2023-03-14T11:41:57;3.50;;;1.20;;
3341;SDS011;1684;50.748;6.154;2023-03-14T11:44:32;4.57;;;2.07;;
3341;SDS011;1684;50.748;6.154;2023-03-14T11:47:02;3.23;;;1.63;;
3341;SDS011;1684;50.748;6.154;2023-03-14T11:49:34;3.00;;;1.30;;
3341;SDS011;1684;50.748;6.154;2023-03-14T11:52:05;2.90;;;1.37;;
3341;SDS011;1684;50.748;6.154;2023-03-14T11:54:38;3.87;;;1.50;;
3341;SDS011;1684;50.748;6.154;2023-03-14T11:57:10;2.40;;;1.07;;
3341;SDS011;1684;50.748;6.154;2023-03-14T11:59:41;2.60;;;1.30;;
3341;SDS011;1684;50.748;6.154;2023-03-14T12:02:16;2.40;;;1.00;;
3341;SDS011;1684;50.748;6.154;2023-03-14T12:04:49;2.60;;;1.10;;
3341;SDS011;1684;50.748;6.154;2023-03-14T12:07:20;2.40;;;1.03;;
3341;SDS011;1684;50.748;6.154;2023-03-14T12:09:50;2.27;;;0.90;;
3341;SDS011;1684;50.748;6.154;2023-03-14T12:12:19;2.40;;;1.03;;
3341;SDS011;1684;50.748;6.154;2023-03-14T12:14:52;3.60;;;1.53;;
3341;SDS011;1684;50.748;6.154;2023-03-14T12:17:22;2.60;;;1.20;;
3341;SDS011;1684;50.748;6.154;2023-03-14T12:20:02;3.57;;;1.20;;
3341;SDS011;1684;50.748;6.154;2023-03-14T12:22:34;3.20;;;1.30;;
3341;SDS011;1684;50.748;6.154;2023-03-14T12:25:04;2.10;;;0.70;;
3341;SDS011;1684;50.748;6.154;2023-03-14T12:27:46;3.80;;;1.20;;
3341;SDS011;1684;50.748;6.154;2023-03-14T12:30:23;2.23;;;0.83;;
3341;SDS011;1684;50.748;6.154;2023-03-14T12:35:41;2.17;;;0.97;;
3341;SDS011;1684;50.748;6.154;2023-03-14T12:38:11;3.80;;;1.00;;
3341;SDS011;1684;50.748;6.154;2023-03-14T12:40:42;2.80;;;1.27;;
3341;SDS011;1684;50.748;6.154;2023-03-14T12:43:24;5.60;;;1.43;;
3341;SDS011;1684;50.748;6.154;2023-03-14T12:46:09;2.60;;;1.20;;
3341;SDS011;1684;50.748;6.154;2023-03-14T12:48:43;3.90;;;1.33;;
3341;SDS011;1684;50.748;6.154;2023-03-14T12:51:14;8.20;;;1.00;;
3341;SDS011;1684;50.748;6.154;2023-03-14T12:53:55;2.83;;;1.10;;
3341;SDS011;1684;50.748;6.154;2023-03-14T12:56:26;3.60;;;1.40;;
3341;SDS011;1684;50.748;6.154;2023-03-14T12:59:02;3.30;;;1.00;;
3341;SDS011;1684;50.748;6.154;2023-03-14T13:01:33;4.50;;;1.60;;
3341;SDS011;1684;50.748;6.154;2023-03-14T13:04:03;3.20;;;0.70;;
3341;SDS011;1684;50.748;6.154;2023-03-14T13:06:48;2.40;;;0.60;;
3341;SDS011;1684;50.748;6.154;2023-03-14T13:09:34;3.60;;;1.20;;
3341;SDS011;1684;50.748;6.154;2023-03-14T13:12:02;2.27;;;0.90;;
3341;SDS011;1684;50.748;6.154;2023-03-14T13:14:31;5.33;;;1.10;;
3341;SDS011;1684;50.748;6.154;2023-03-14T13:17:00;3.70;;;1.10;;
3341;SDS011;1684;50.748;6.154;2023-03-14T13:19:49;2.40;;;0.87;;
3341;SDS011;1684;50.748;6.154;2023-03-14T13:22:22;2.90;;;1.03;;
3341;SDS011;1684;50.748;6.154;2023-03-14T13:24:57;4.07;;;1.33;;
3341;SDS011;1684;50.748;6.154;2023-03-14T13:27:26;2.30;;;0.87;;
3341;SDS011;1684;50.748;6.154;2023-03-14T13:29:54;3.43;;;1.20;;
3341;SDS011;1684;50.748;6.154;2023-03-14T13:32:26;4.47;;;1.07;;
3341;SDS011;1684;50.748;6.154;2023-03-14T13:34:55;4.07;;;1.30;;
3341;SDS011;1684;50.748;6.154;2023-03-14T13:37:26;4.70;;;1.63;;
3341;SDS011;1684;50.748;6.154;2023-03-14T13:39:55;4.63;;;1.30;;
3341;SDS011;1684;50.748;6.154;2023-03-14T13:42:24;4.93;;;1.43;;
3341;SDS011;1684;50.748;6.154;2023-03-14T13:44:53;6.30;;;1.50;;
3341;SDS011;1684;50.748;6.154;2023-03-14T13:47:23;3.87;;;0.90;;
3341;SDS011;1684;50.748;6.154;2023-03-14T13:49:52;5.47;;;1.10;;
3341;SDS011;1684;50.748;6.154;2023-03-14T13:52:27;5.07;;;1.10;;
3341;SDS011;1684;50.748;6.154;2023-03-14T13:54:56;3.30;;;0.90;;
3341;SDS011;1684;50.748;6.154;2023-03-14T13:57:25;3.80;;;1.53;;
3341;SDS011;1684;50.748;6.154;2023-03-14T13:59:59;4.17;;;0.87;;
3341;SDS011;1684;50.748;6.154;2023-03-14T14:02:33;4.60;;;1.50;;
3341;SDS011;1684;50.748;6.154;2023-03-14T14:05:03;3.73;;;0.90;;
3341;SDS011;1684;50.748;6.154;2023-03-14T14:07:33;5.30;;;1.50;;
3341;SDS011;1684;50.748;6.154;2023-03-14T14:10:04;4.40;;;1.60;;
3341;SDS011;1684;50.748;6.154;2023-03-14T14:12:33;9.40;;;2.57;;
3341;SDS011;1684;50.748;6.154;2023-03-14T14:15:04;5.47;;;2.40;;
3341;SDS011;1684;50.748;6.154;2023-03-14T14:17:34;5.70;;;1.73;;
3341;SDS011;1684;50.748;6.154;2023-03-14T14:20:04;6.17;;;2.30;;
3341;SDS011;1684;50.748;6.154;2023-03-14T14:22:35;9.33;;;2.10;;
3341;SDS011;1684;50.748;6.154;2023-03-14T14:25:03;9.43;;;3.07;;
3341;SDS011;1684;50.748;6.154;2023-03-14T14:27:33;6.80;;;2.30;;
3341;SDS011;1684;50.748;6.154;2023-03-14T14:30:03;5.10;;;1.80;;
3341;SDS011;1684;50.748;6.154;2023-03-14T14:32:36;9.93;;;2.17;;
3341;SDS011;1684;50.748;6.154;2023-03-14T14:35:05;6.20;;;1.90;;
3341;SDS011;1684;50.748;6.154;2023-03-14T14:37:35;9.70;;;1.67;;
3341;SDS011;1684;50.748;6.154;2023-03-14T14:40:09;9.60;;;2.23;;
3341;SDS011;1684;50.748;6.154;2023-03-14T14:42:42;8.07;;;1.90;;
3341;SDS011;1684;50.748;6.154;2023-03-14T14:45:11;4.90;;;2.10;;
3341;SDS011;1684;50.748;6.154;2023-03-14T14:47:47;8.17;;;1.73;;
3341;SDS011;1684;50.748;6.154;2023-03-14T14:50:21;5.63;;;1.83;;
3341;SDS011;1684;50.748;6.154;2023-03-14T14:52:50;6.90;;;1.83;;
3341;SDS011;1684;50.748;6.154;2023-03-14T14:55:28;6.50;;;2.17;;
3341;SDS011;1684;50.748;6.154;2023-03-14T14:57:57;5.13;;;2.20;;
3341;SDS011;1684;50.748;6.154;2023-03-14T15:00:26;12.93;;;3.57;;
3341;SDS011;1684;50.748;6.154;2023-03-14T15:02:55;5.87;;;2.47;;
3341;SDS011;1684;50.748;6.154;2023-03-14T15:05:27;5.90;;;1.87;;
3341;SDS011;1684;50.748;6.154;2023-03-14T15:07:58;6.93;;;2.20;;
3341;SDS011;1684;50.748;6.154;2023-03-14T15:10:26;5.63;;;2.10;;
3341;SDS011;1684;50.748;6.154;2023-03-14T15:12:55;8.00;;;2.40;;
3341;SDS011;1684;50.748;6.154;2023-03-14T15:15:23;6.57;;;2.23;;
3341;SDS011;1684;50.748;6.154;2023-03-14T15:17:51;10.53;;;3.40;;
3341;SDS011;1684;50.748;6.154;2023-03-14T15:20:19;14.20;;;3.80;;
3341;SDS011;1684;50.748;6.154;2023-03-14T15:22:49;10.00;;;3.27;;
3341;SDS011;1684;50.748;6.154;2023-03-14T15:25:19;6.07;;;2.23;;
3341;SDS011;1684;50.748;6.154;2023-03-14T15:28:10;9.47;;;2.20;;
3341;SDS011;1684;50.748;6.154;2023-03-14T15:30:42;7.23;;;2.30;;
3341;SDS011;1684;50.748;6.154;2023-03-14T15:33:11;6.70;;;2.70;;
3341;SDS011;1684;50.748;6.154;2023-03-14T15:35:39;10.80;;;2.50;;